createdAt,value
2018-12-01T00:00:27.515Z,39.97
2018-12-01T00:02:55.899Z,35.77
2018-12-01T00:05:24.231Z,32.10
2018-12-01T00:07:52.790Z,30.60
2018-12-01T00:10:21.204Z,34.13
2018-12-01T00:12:49.577Z,36.47
2018-12-01T00:15:24.044Z,32.17
2018-12-01T00:17:52.647Z,32.70
2018-12-01T00:20:22.350Z,32.53
2018-12-01T00:22:50.700Z,36.77
2018-12-01T00:25:19.036Z,32.57
2018-12-01T00:27:47.364Z,39.17
2018-12-01T00:30:17.362Z,40.50
2018-12-01T00:32:47.808Z,35.17
2018-12-01T00:35:16.211Z,34.73
2018-12-01T00:37:44.572Z,38.47
2018-12-01T00:40:19.867Z,35.43
2018-12-01T00:42:48.283Z,37.10
2018-12-01T00:45:17.537Z,39.80
2018-12-01T00:47:46.866Z,36.40
2018-12-01T00:50:16.268Z,42.10
2018-12-01T00:52:44.904Z,34.63
2018-12-01T00:55:14.283Z,32.27
2018-12-01T00:57:42.657Z,37.13
2018-12-01T01:00:20.346Z,40.33
2018-12-01T01:02:52.857Z,38.67
2018-12-01T01:05:22.088Z,41.73
2018-12-01T01:07:50.473Z,44.10
2018-12-01T01:10:19.507Z,37.60
2018-12-01T01:12:47.868Z,37.50
2018-12-01T01:15:16.233Z,36.10
2018-12-01T01:17:44.563Z,43.73
2018-12-01T01:20:15.670Z,41.80
2018-12-01T01:22:44.206Z,39.23
2018-12-01T01:25:13.034Z,39.83
2018-12-01T01:27:41.433Z,40.80
2018-12-01T01:30:18.025Z,39.30
2018-12-01T01:32:46.415Z,39.97
2018-12-01T01:35:14.785Z,44.97
2018-12-01T01:37:43.142Z,42.77
2018-12-01T01:40:14.461Z,46.33
2018-12-01T01:42:42.784Z,46.43
2018-12-01T01:45:17.099Z,42.33
2018-12-01T01:47:45.468Z,43.03
2018-12-01T01:50:16.643Z,50.77
2018-12-01T01:52:44.992Z,46.27
2018-12-01T01:55:13.403Z,42.33
2018-12-01T01:57:41.835Z,50.07
2018-12-01T02:00:13.376Z,54.87
2018-12-01T02:02:45.020Z,42.53
2018-12-01T02:05:13.564Z,47.53
2018-12-01T02:07:41.924Z,49.50
2018-12-01T02:10:11.246Z,47.73
2018-12-01T02:12:39.692Z,47.00
2018-12-01T02:15:08.962Z,53.93
2018-12-01T02:17:37.338Z,50.47
2018-12-01T02:20:09.352Z,44.83
2018-12-01T02:22:37.744Z,55.97
2018-12-01T02:25:06.891Z,50.23
2018-12-01T02:27:35.259Z,64.63
2018-12-01T02:30:04.160Z,55.77
2018-12-01T02:32:32.517Z,57.27
2018-12-01T02:35:00.891Z,55.17
2018-12-01T02:37:29.219Z,55.27
2018-12-01T02:39:57.584Z,51.53
2018-12-01T02:42:25.924Z,56.03
2018-12-01T02:45:07.184Z,52.97
2018-12-01T02:47:35.518Z,58.17
2018-12-01T02:50:05.156Z,57.07
2018-12-01T02:52:33.515Z,53.10
2018-12-01T02:55:01.876Z,55.50
2018-12-01T02:57:30.211Z,67.27
2018-12-01T02:59:58.596Z,62.37
2018-12-01T03:02:26.943Z,62.23
2018-12-01T03:04:55.321Z,61.13
2018-12-01T03:07:23.656Z,57.77
2018-12-01T03:09:52.004Z,57.97
2018-12-01T03:12:20.359Z,56.03
2018-12-01T03:14:48.728Z,59.53
2018-12-01T03:17:17.052Z,68.83
2018-12-01T03:19:45.432Z,67.53
2018-12-01T03:22:13.778Z,60.73
2018-12-01T03:24:42.182Z,66.50
2018-12-01T03:27:10.572Z,68.27
2018-12-01T03:29:38.957Z,54.97
2018-12-01T03:32:07.325Z,65.40
2018-12-01T03:34:35.683Z,75.53
2018-12-01T03:37:04.064Z,70.73
2018-12-01T03:39:32.438Z,67.60
2018-12-01T03:42:00.772Z,76.27
2018-12-01T03:44:29.133Z,72.53
2018-12-01T03:46:57.488Z,81.00
2018-12-01T03:49:25.851Z,72.27
2018-12-01T03:51:54.228Z,81.03
2018-12-01T03:54:22.608Z,74.57
2018-12-01T03:56:50.976Z,77.97
2018-12-01T03:59:19.348Z,81.47
2018-12-01T04:01:47.675Z,70.80
2018-12-01T04:04:16.069Z,79.07
2018-12-01T04:06:44.452Z,70.17
2018-12-01T04:09:18.108Z,61.30
2018-12-01T04:11:46.472Z,64.53
2018-12-01T04:14:14.853Z,72.23
2018-12-01T04:16:43.235Z,69.87
2018-12-01T04:19:11.607Z,67.60
2018-12-01T04:21:40.023Z,70.23
2018-12-01T04:24:08.400Z,74.57
2018-12-01T04:26:36.798Z,69.37
2018-12-01T04:29:05.286Z,67.57
2018-12-01T04:31:33.632Z,67.30
2018-12-01T04:34:02.010Z,67.20
2018-12-01T04:36:30.418Z,71.20
2018-12-01T04:38:58.767Z,75.87
2018-12-01T04:41:27.147Z,70.43
2018-12-01T04:43:55.504Z,78.47
2018-12-01T04:46:23.918Z,75.20
2018-12-01T04:48:52.327Z,65.50
2018-12-01T04:51:20.744Z,74.73
2018-12-01T04:53:49.123Z,78.87
2018-12-01T04:56:17.526Z,80.90
2018-12-01T04:58:45.919Z,74.33
2018-12-01T05:01:14.285Z,84.33
2018-12-01T05:03:42.623Z,78.90
2018-12-01T05:06:11.305Z,73.83
2018-12-01T05:08:39.659Z,80.83
2018-12-01T05:11:08.052Z,72.50
2018-12-01T05:13:36.424Z,81.73
2018-12-01T05:16:05.058Z,68.50
2018-12-01T05:18:33.432Z,72.43
2018-12-01T05:21:01.874Z,73.70
2018-12-01T05:23:30.319Z,89.53
2018-12-01T05:25:58.678Z,90.73
2018-12-01T05:28:33.932Z,83.83
2018-12-01T05:31:02.326Z,84.67
2018-12-01T05:33:30.684Z,82.53
2018-12-01T05:35:59.047Z,83.73
2018-12-01T05:38:27.419Z,82.17
2018-12-01T05:40:55.786Z,82.47
2018-12-01T05:43:24.143Z,83.00
2018-12-01T05:45:52.540Z,89.43
2018-12-01T05:48:20.933Z,89.10
2018-12-01T05:50:49.400Z,83.80
2018-12-01T05:53:17.748Z,87.13
2018-12-01T05:55:46.151Z,90.40
2018-12-01T05:58:14.527Z,90.47
2018-12-01T06:00:42.919Z,85.33
2018-12-01T06:03:11.295Z,85.67
2018-12-01T06:05:39.665Z,94.83
2018-12-01T06:08:08.033Z,88.43
2018-12-01T06:10:36.420Z,92.53
2018-12-01T06:13:04.786Z,91.83
2018-12-01T06:15:33.187Z,91.87
2018-12-01T06:18:01.552Z,81.07
2018-12-01T06:20:29.928Z,81.93
2018-12-01T06:22:58.268Z,83.23
2018-12-01T06:25:26.649Z,89.53
2018-12-01T06:27:55.004Z,84.83
2018-12-01T06:30:23.365Z,80.63
2018-12-01T06:32:52.506Z,85.43
2018-12-01T06:35:20.863Z,81.00
2018-12-01T06:37:49.223Z,82.07
2018-12-01T06:40:18.631Z,76.27
2018-12-01T06:42:47.007Z,76.03
2018-12-01T06:45:16.024Z,87.83
2018-12-01T06:47:44.428Z,75.43
2018-12-01T06:50:20.503Z,84.40
2018-12-01T06:52:48.944Z,79.83
2018-12-01T06:55:17.320Z,73.37
2018-12-01T06:57:46.384Z,82.77
2018-12-01T07:00:19.803Z,81.53
2018-12-01T07:02:48.795Z,78.50
2018-12-01T07:05:17.751Z,69.20
2018-12-01T07:07:46.092Z,69.30
2018-12-01T07:10:19.535Z,79.60
2018-12-01T07:12:50.355Z,70.73
2018-12-01T07:15:22.593Z,69.43
2018-12-01T07:17:50.964Z,72.77
2018-12-01T07:20:19.332Z,70.50
2018-12-01T07:22:47.754Z,82.37
2018-12-01T07:25:16.137Z,71.73
2018-12-01T07:27:44.497Z,80.37
2018-12-01T07:30:14.062Z,74.17
2018-12-01T07:32:43.031Z,66.27
2018-12-01T07:35:11.415Z,72.23
2018-12-01T07:37:39.976Z,67.00
2018-12-01T07:40:12.877Z,68.30
2018-12-01T07:42:41.253Z,65.07
2018-12-01T07:45:10.869Z,67.37
2018-12-01T07:47:39.248Z,63.40
2018-12-01T07:50:15.725Z,64.40
2018-12-01T07:52:46.555Z,66.30
2018-12-01T07:55:14.955Z,63.40
2018-12-01T07:57:43.303Z,72.33
2018-12-01T08:00:13.610Z,58.37
2018-12-01T08:02:42.896Z,60.00
2018-12-01T08:05:11.825Z,64.43
2018-12-01T08:07:40.180Z,59.33
2018-12-01T08:10:11.632Z,51.63
2018-12-01T08:12:39.993Z,65.53
2018-12-01T08:15:14.214Z,53.07
2018-12-01T08:17:42.629Z,55.73
2018-12-01T08:20:12.002Z,65.37
2018-12-01T08:22:40.352Z,52.33
2018-12-01T08:25:19.444Z,49.80
2018-12-01T08:27:49.251Z,53.67
2018-12-01T08:30:23.014Z,78.17
2018-12-01T08:32:51.388Z,53.10
2018-12-01T08:35:19.800Z,54.67
2018-12-01T08:37:48.177Z,55.50
2018-12-01T08:40:17.889Z,49.30
2018-12-01T08:42:46.240Z,50.87
2018-12-01T08:45:14.601Z,50.73
2018-12-01T08:47:43.052Z,49.23
2018-12-01T08:50:12.694Z,49.97
2018-12-01T08:52:41.180Z,65.53
2018-12-01T08:55:10.919Z,52.90
2018-12-01T08:57:39.297Z,54.13
2018-12-01T09:00:10.975Z,50.50
2018-12-01T09:02:39.336Z,57.40
2018-12-01T09:05:08.105Z,59.77
2018-12-01T09:07:36.471Z,52.63
2018-12-01T09:10:06.897Z,52.17
2018-12-01T09:12:35.240Z,52.50
2018-12-01T09:15:03.711Z,48.07
2018-12-01T09:17:32.085Z,50.93
2018-12-01T09:20:00.460Z,52.10
2018-12-01T09:22:28.857Z,51.10
2018-12-01T09:24:57.296Z,49.27
2018-12-01T09:27:25.652Z,43.97
2018-12-01T09:29:54.031Z,43.80
2018-12-01T09:32:22.575Z,50.20
2018-12-01T09:34:50.972Z,47.87
2018-12-01T09:37:19.355Z,49.37
2018-12-01T09:39:47.754Z,47.33
2018-12-01T09:42:16.101Z,52.73
2018-12-01T09:44:44.475Z,55.10
2018-12-01T09:47:12.840Z,41.40
2018-12-01T09:49:41.256Z,53.37
2018-12-01T09:52:09.623Z,46.50
2018-12-01T09:54:38.016Z,50.50
2018-12-01T09:57:06.422Z,42.53
2018-12-01T09:59:35.053Z,49.03
2018-12-01T10:02:03.419Z,42.70
2018-12-01T10:04:31.856Z,44.83
2018-12-01T10:07:00.247Z,40.33
2018-12-01T10:09:28.655Z,49.43
2018-12-01T10:11:57.024Z,49.23
2018-12-01T10:14:25.424Z,41.90
2018-12-01T10:16:53.815Z,41.27
2018-12-01T10:19:22.247Z,37.07
2018-12-01T10:21:50.612Z,43.30
2018-12-01T10:24:18.995Z,33.47
2018-12-01T10:26:47.335Z,39.63
2018-12-01T10:29:15.708Z,36.83
2018-12-01T10:31:44.081Z,35.47
2018-12-01T10:34:12.492Z,35.37
2018-12-01T10:36:40.864Z,35.87
2018-12-01T10:39:09.845Z,40.27
2018-12-01T10:41:38.198Z,35.60
2018-12-01T10:44:06.629Z,32.77
2018-12-01T10:46:35.087Z,38.80
2018-12-01T10:49:03.476Z,38.00
2018-12-01T10:51:31.843Z,42.27
2018-12-01T10:54:00.269Z,36.07
2018-12-01T10:56:35.448Z,43.40
2018-12-01T10:59:03.852Z,39.07
2018-12-01T11:01:33.711Z,40.47
2018-12-01T11:04:06.603Z,38.07
2018-12-01T11:06:34.985Z,35.50
2018-12-01T11:09:03.651Z,36.27
2018-12-01T11:11:32.021Z,41.83
2018-12-01T11:14:00.410Z,40.87
2018-12-01T11:16:28.785Z,43.83
2018-12-01T11:18:57.197Z,39.57
2018-12-01T11:21:25.530Z,44.20
2018-12-01T11:23:53.917Z,41.40
2018-12-01T11:26:22.267Z,37.57
2018-12-01T11:28:50.668Z,43.40
2018-12-01T11:31:19.031Z,40.67
2018-12-01T11:33:47.488Z,45.00
2018-12-01T11:36:16.007Z,37.10
2018-12-01T11:38:44.371Z,35.23
2018-12-01T11:41:12.768Z,45.27
2018-12-01T11:43:41.158Z,38.47
2018-12-01T11:46:09.532Z,40.57
2018-12-01T11:48:38.013Z,39.40
2018-12-01T11:51:06.411Z,39.33
2018-12-01T11:53:34.788Z,38.87
2018-12-01T11:56:03.147Z,35.23
2018-12-01T11:58:31.543Z,41.27
2018-12-01T12:00:59.899Z,40.60
2018-12-01T12:03:28.312Z,38.00
2018-12-01T12:05:56.797Z,39.33
2018-12-01T12:08:26.539Z,35.67
2018-12-01T12:10:55.323Z,44.57
2018-12-01T12:13:25.764Z,34.77
2018-12-01T12:15:54.152Z,40.80
2018-12-01T12:18:22.786Z,37.77
2018-12-01T12:20:51.268Z,39.63
2018-12-01T12:23:19.648Z,38.60
2018-12-01T12:25:48.460Z,38.20
2018-12-01T12:28:19.002Z,37.37
2018-12-01T12:30:47.350Z,34.67
2018-12-01T12:33:15.705Z,32.30
2018-12-01T12:35:44.084Z,38.10
2018-12-01T12:38:12.561Z,26.33
2018-12-01T12:40:40.948Z,32.93
2018-12-01T12:43:09.320Z,31.47
2018-12-01T12:45:37.759Z,34.83
2018-12-01T12:48:07.271Z,28.40
2018-12-01T12:50:35.827Z,30.40
2018-12-01T12:53:04.215Z,27.20
2018-12-01T12:55:32.592Z,31.53
2018-12-01T12:58:00.990Z,33.53
2018-12-01T13:00:29.356Z,28.60
2018-12-01T13:03:08.604Z,26.63
2018-12-01T13:05:42.033Z,32.00
2018-12-01T13:08:11.491Z,33.13
2018-12-01T13:10:39.891Z,31.37
2018-12-01T13:13:08.460Z,30.33
2018-12-01T13:15:40.045Z,28.37
2018-12-01T13:18:14.604Z,33.80
2018-12-01T13:20:44.199Z,30.67
2018-12-01T13:23:12.577Z,32.43
2018-12-01T13:25:41.571Z,26.90
2018-12-01T13:28:19.413Z,27.27
2018-12-01T13:30:51.755Z,29.27
2018-12-01T13:33:20.214Z,27.20
2018-12-01T13:35:48.651Z,28.53
2018-12-01T13:38:17.124Z,26.23
2018-12-01T13:40:45.476Z,27.53
2018-12-01T13:43:13.852Z,29.63
2018-12-01T13:45:42.296Z,29.83
2018-12-01T13:48:10.677Z,32.60
2018-12-01T13:50:39.120Z,26.17
2018-12-01T13:53:09.503Z,32.40
2018-12-01T13:55:37.882Z,31.17
2018-12-01T13:58:06.350Z,48.17
2018-12-01T14:00:34.803Z,38.83
2018-12-01T14:03:03.199Z,33.30
2018-12-01T14:05:31.577Z,27.67
2018-12-01T14:07:59.931Z,27.43
2018-12-01T14:10:29.435Z,28.30
2018-12-01T14:13:02.135Z,23.20
2018-12-01T14:15:30.508Z,24.03
2018-12-01T14:17:58.907Z,23.87
2018-12-01T14:20:27.260Z,21.40
2018-12-01T14:22:55.652Z,26.60
2018-12-01T14:25:24.049Z,28.27
2018-12-01T14:28:04.902Z,24.10
2018-12-01T14:30:33.296Z,19.93
2018-12-01T14:33:01.686Z,21.50
2018-12-01T14:35:32.568Z,28.37
2018-12-01T14:38:06.752Z,23.73
2018-12-01T14:40:35.269Z,23.43
2018-12-01T14:43:03.665Z,29.37
2018-12-01T14:45:32.064Z,30.23
2018-12-01T14:48:01.255Z,26.27
2018-12-01T14:50:29.703Z,20.50
2018-12-01T14:52:58.060Z,26.27
2018-12-01T14:55:26.473Z,24.53
2018-12-01T14:57:54.852Z,23.33
2018-12-01T15:00:24.245Z,22.53
2018-12-01T15:02:53.635Z,27.03
2018-12-01T15:05:22.167Z,21.07
2018-12-01T15:07:50.776Z,29.77
2018-12-01T15:10:26.739Z,21.73
2018-12-01T15:12:55.296Z,21.50
2018-12-01T15:15:26.585Z,28.00
2018-12-01T15:17:54.999Z,25.10
2018-12-01T15:20:24.507Z,22.20
2018-12-01T15:22:54.003Z,23.80
2018-12-01T15:25:24.475Z,19.77
2018-12-01T15:27:52.931Z,24.83
2018-12-01T15:30:22.136Z,20.57
2018-12-01T15:32:59.654Z,25.00
2018-12-01T15:35:28.043Z,30.00
2018-12-01T15:38:03.046Z,27.63
2018-12-01T15:40:31.427Z,27.33
2018-12-01T15:42:59.783Z,34.47
2018-12-01T15:45:28.176Z,31.27
2018-12-01T15:47:56.536Z,31.23
2018-12-01T15:50:24.958Z,26.53
2018-12-01T15:52:56.412Z,26.57
2018-12-01T15:55:25.052Z,31.40
2018-12-01T15:57:53.612Z,23.97
2018-12-01T16:00:25.187Z,19.70
2018-12-01T16:02:53.578Z,24.80
2018-12-01T16:05:22.794Z,21.07
2018-12-01T16:07:52.447Z,20.03
2018-12-01T16:10:21.745Z,25.47
2018-12-01T16:12:53.375Z,26.67
2018-12-01T16:15:27.048Z,25.20
2018-12-01T16:17:55.467Z,18.93
2018-12-01T16:20:23.848Z,28.20
2018-12-01T16:22:52.306Z,18.27
2018-12-01T16:25:21.884Z,17.13
2018-12-01T16:27:50.255Z,17.83
2018-12-01T16:30:24.781Z,20.57
2018-12-01T16:32:55.602Z,37.00
2018-12-01T16:35:24.009Z,21.53
2018-12-01T16:37:52.415Z,19.77
2018-12-01T16:40:33.885Z,18.60
2018-12-01T16:43:03.805Z,20.20
2018-12-01T16:45:32.192Z,21.13
2018-12-01T16:48:00.538Z,17.13
2018-12-01T16:50:28.941Z,20.60
2018-12-01T16:52:57.299Z,21.53
2018-12-01T16:55:25.762Z,18.97
2018-12-01T16:57:54.096Z,22.63
2018-12-01T17:00:22.460Z,20.63
2018-12-01T17:02:53.329Z,17.40
2018-12-01T17:05:22.817Z,18.10
2018-12-01T17:07:51.293Z,16.33
2018-12-01T17:10:20.846Z,18.50
2018-12-01T17:12:53.526Z,19.70
2018-12-01T17:15:22.329Z,18.47
2018-12-01T17:17:50.686Z,13.90
2018-12-01T17:20:19.420Z,20.50
2018-12-01T17:22:52.825Z,25.63
2018-12-01T17:25:21.233Z,24.30
2018-12-01T17:27:50.576Z,20.77
2018-12-01T17:30:21.251Z,27.90
2018-12-01T17:32:50.313Z,18.03
2018-12-01T17:35:19.921Z,17.43
2018-12-01T17:37:51.612Z,19.97
2018-12-01T17:40:23.661Z,18.73
2018-12-01T17:42:53.880Z,18.43
2018-12-01T17:45:22.331Z,19.37
2018-12-01T17:47:50.695Z,19.97
2018-12-01T17:50:19.101Z,22.87
2018-12-01T17:52:49.291Z,24.37
2018-12-01T17:55:17.808Z,20.67
2018-12-01T17:57:46.698Z,19.43
2018-12-01T18:00:18.438Z,16.27
2018-12-01T18:02:46.938Z,16.57
2018-12-01T18:05:24.203Z,23.50
2018-12-01T18:07:52.562Z,15.00
2018-12-01T18:10:20.964Z,20.27
2018-12-01T18:12:49.320Z,14.83
2018-12-01T18:15:18.397Z,18.17
2018-12-01T18:17:46.800Z,14.90
2018-12-01T18:20:21.493Z,52.27
2018-12-01T18:22:58.055Z,17.90
2018-12-01T18:25:27.409Z,19.27
2018-12-01T18:27:57.007Z,13.57
2018-12-01T18:30:34.692Z,16.83
2018-12-01T18:33:06.059Z,19.47
2018-12-01T18:35:34.449Z,15.03
2018-12-01T18:38:02.823Z,12.83
2018-12-01T18:40:31.219Z,16.03
2018-12-01T18:42:59.569Z,16.57
2018-12-01T18:45:27.997Z,17.67
2018-12-01T18:47:56.396Z,12.67
2018-12-01T18:50:24.802Z,16.53
2018-12-01T18:53:02.325Z,12.73
2018-12-01T18:55:32.282Z,11.50
2018-12-01T18:58:00.659Z,10.27
2018-12-01T19:00:30.900Z,16.87
2018-12-01T19:02:59.263Z,10.57
2018-12-01T19:05:27.700Z,13.70
2018-12-01T19:07:56.064Z,28.23
2018-12-01T19:10:24.497Z,30.57
2018-12-01T19:12:52.871Z,24.33
2018-12-01T19:15:21.275Z,15.40
2018-12-01T19:17:49.720Z,16.53
2018-12-01T19:20:18.495Z,13.70
2018-12-01T19:22:48.257Z,8.87
2018-12-01T19:25:17.851Z,12.47
2018-12-01T19:27:46.328Z,13.43
2018-12-01T19:30:15.820Z,13.97
2018-12-01T19:32:49.322Z,17.50
2018-12-01T19:35:18.008Z,12.03
2018-12-01T19:37:47.817Z,13.63
2018-12-01T19:40:20.247Z,11.10
2018-12-01T19:42:48.619Z,13.77
2018-12-01T19:45:16.999Z,12.40
2018-12-01T19:47:45.433Z,11.97
2018-12-01T19:50:46.728Z,13.47
2018-12-01T19:53:16.531Z,10.87
2018-12-01T19:55:46.357Z,13.73
2018-12-01T19:58:20.479Z,14.37
2018-12-01T20:00:50.587Z,11.87
2018-12-01T20:03:20.319Z,9.47
2018-12-01T20:05:48.776Z,12.27
2018-12-01T20:08:18.335Z,15.03
2018-12-01T20:10:51.345Z,11.40
2018-12-01T20:13:27.482Z,14.77
2018-12-01T20:16:03.171Z,11.27
2018-12-01T20:18:31.559Z,12.10
2018-12-01T20:20:59.956Z,13.87
2018-12-01T20:23:28.364Z,11.47
2018-12-01T20:25:56.726Z,9.73
2018-12-01T20:28:25.080Z,12.67
2018-12-01T20:30:53.441Z,11.03
2018-12-01T20:33:21.800Z,11.23
2018-12-01T20:35:57.265Z,14.43
2018-12-01T20:38:31.413Z,13.33
2018-12-01T20:40:59.752Z,12.03
2018-12-01T20:43:28.139Z,13.43
2018-12-01T20:45:56.485Z,11.80
2018-12-01T20:48:24.877Z,13.57
2018-12-01T20:50:53.246Z,11.10
2018-12-01T20:53:21.639Z,11.47
2018-12-01T20:55:52.583Z,9.83
2018-12-01T20:58:21.211Z,14.17
2018-12-01T21:00:49.578Z,14.60
2018-12-01T21:03:17.951Z,11.27
2018-12-01T21:05:46.312Z,11.07
2018-12-01T21:08:14.728Z,13.30
2018-12-01T21:10:49.853Z,14.53
2018-12-01T21:13:18.219Z,11.07
2018-12-01T21:15:46.589Z,10.50
2018-12-01T21:18:14.943Z,11.57
2018-12-01T21:20:43.332Z,14.13
2018-12-01T21:23:11.665Z,9.37
2018-12-01T21:25:40.167Z,11.30
2018-12-01T21:28:08.590Z,11.03
2018-12-01T21:30:37.250Z,7.50
2018-12-01T21:33:09.657Z,12.20
2018-12-01T21:35:38.016Z,12.33
2018-12-01T21:38:10.740Z,12.77
2018-12-01T21:40:40.069Z,14.33
2018-12-01T21:43:09.058Z,9.47
2018-12-01T21:45:37.420Z,12.60
2018-12-01T21:48:07.992Z,12.03
2018-12-01T21:50:36.485Z,12.33
2018-12-01T21:53:05.915Z,13.07
2018-12-01T21:55:34.244Z,14.33
2018-12-01T21:58:02.626Z,12.80
2018-12-01T22:00:32.081Z,8.40
2018-12-01T22:03:05.623Z,7.40
2018-12-01T22:05:37.999Z,8.13
2018-12-01T22:08:07.746Z,14.80
2018-12-01T22:10:36.114Z,9.33
2018-12-01T22:13:04.485Z,10.70
2018-12-01T22:15:32.927Z,11.33
2018-12-01T22:18:01.350Z,14.67
2018-12-01T22:20:29.683Z,13.80
2018-12-01T22:22:58.079Z,13.27
2018-12-01T22:25:26.435Z,17.23
2018-12-01T22:27:54.849Z,12.63
2018-12-01T22:30:23.481Z,12.07
2018-12-01T22:32:54.735Z,16.00
2018-12-01T22:35:24.140Z,19.90
2018-12-01T22:37:53.299Z,16.37
2018-12-01T22:40:27.769Z,17.40
2018-12-01T22:42:57.535Z,13.30
2018-12-01T22:45:25.923Z,15.90
2018-12-01T22:47:54.324Z,18.80
2018-12-01T22:50:22.936Z,16.07
2018-12-01T22:52:52.110Z,16.93
2018-12-01T22:55:21.827Z,17.73
2018-12-01T22:57:51.743Z,15.07
2018-12-01T23:00:21.515Z,17.63
2018-12-01T23:02:49.868Z,22.13
2018-12-01T23:05:18.257Z,18.80
2018-12-01T23:07:46.603Z,20.17
2018-12-01T23:10:16.197Z,20.23
2018-12-01T23:12:45.760Z,16.10
2018-12-01T23:15:15.352Z,19.00
2018-12-01T23:17:45.161Z,21.53
2018-12-01T23:20:18.689Z,18.00
2018-12-01T23:22:47.368Z,19.13
2018-12-01T23:25:15.773Z,20.30
2018-12-01T23:27:44.139Z,20.30
2018-12-01T23:30:27.824Z,18.27
2018-12-01T23:32:59.107Z,20.97
2018-12-01T23:35:27.452Z,25.07
2018-12-01T23:37:55.819Z,19.73
2018-12-01T23:40:24.228Z,23.77
2018-12-01T23:42:52.616Z,23.67
2018-12-01T23:45:21.328Z,23.13
2018-12-01T23:47:49.753Z,24.40
2018-12-01T23:50:24.382Z,26.37
2018-12-01T23:52:55.085Z,27.33
2018-12-01T23:55:23.508Z,26.53
2018-12-01T23:57:51.881Z,26.60
